sensor_id;sensor_type;location;lat;lon;timestamp;temperature;humidity
4081;DHT22;2055;50.074;8.436;2024-02-14T00:01:04;5.60;99.90
4081;DHT22;2055;50.074;8.436;2024-02-14T00:03:29;5.50;99.90
4081;DHT22;2055;50.074;8.436;2024-02-14T00:05:55;5.50;99.90
4081;DHT22;2055;50.074;8.436;2024-02-14T00:08:22;5.50;99.90
4081;DHT22;2055;50.074;8.436;2024-02-14T00:10:48;5.50;1.00
4081;DHT22;2055;50.074;8.436;2024-02-14T00:13:14;5.50;1.00
4081;DHT22;2055;50.074;8.436;2024-02-14T00:15:40;5.50;1.00
4081;DHT22;2055;50.074;8.436;2024-02-14T00:18:05;5.50;1.00
4081;DHT22;2055;50.074;8.436;2024-02-14T00:20:31;5.50;12.40
4081;DHT22;2055;50.074;8.436;2024-02-14T00:22:57;5.50;55.10
4081;DHT22;2055;50.074;8.436;2024-02-14T00:25:23;5.50;68.40
4081;DHT22;2055;50.074;8.436;2024-02-14T00:27:49;5.60;99.90
4081;DHT22;2055;50.074;8.436;2024-02-14T00:30:15;5.50;99.90
4081;DHT22;2055;50.074;8.436;2024-02-14T00:32:40;5.60;99.90
4081;DHT22;2055;50.074;8.436;2024-02-14T00:35:07;5.60;99.90
4081;DHT22;2055;50.074;8.436;2024-02-14T00:37:33;5.60;99.90
4081;DHT22;2055;50.074;8.436;2024-02-14T00:39:59;5.60;99.90
4081;DHT22;2055;50.074;8.436;2024-02-14T00:42:25;5.70;99.90
4081;DHT22;2055;50.074;8.436;2024-02-14T00:44:50;5.70;99.90
4081;DHT22;2055;50.074;8.436;2024-02-14T00:47:16;5.70;99.90
4081;DHT22;2055;50.074;8.436;2024-02-14T00:49:42;5.70;99.90
4081;DHT22;2055;50.074;8.436;2024-02-14T00:52:08;5.70;99.90
4081;DHT22;2055;50.074;8.436;2024-02-14T00:54:34;5.70;99.90
4081;DHT22;2055;50.074;8.436;2024-02-14T00:57:00;5.70;99.90
4081;DHT22;2055;50.074;8.436;2024-02-14T00:59:26;5.60;99.90
4081;DHT22;2055;50.074;8.436;2024-02-14T01:01:51;5.50;99.90
4081;DHT22;2055;50.074;8.436;2024-02-14T01:04:17;5.50;99.90
4081;DHT22;2055;50.074;8.436;2024-02-14T01:06:42;5.50;99.90
4081;DHT22;2055;50.074;8.436;2024-02-14T01:09:08;5.40;99.90
4081;DHT22;2055;50.074;8.436;2024-02-14T01:11:34;5.50;99.90
4081;DHT22;2055;50.074;8.436;2024-02-14T01:13:59;5.50;99.90
4081;DHT22;2055;50.074;8.436;2024-02-14T01:16:25;5.50;99.90
4081;DHT22;2055;50.074;8.436;2024-02-14T01:18:53;5.50;99.90
4081;DHT22;2055;50.074;8.436;2024-02-14T01:21:19;5.50;99.90
4081;DHT22;2055;50.074;8.436;2024-02-14T01:23:45;5.50;99.90
4081;DHT22;2055;50.074;8.436;2024-02-14T01:26:10;5.50;99.90
4081;DHT22;2055;50.074;8.436;2024-02-14T01:28:36;5.50;99.90
4081;DHT22;2055;50.074;8.436;2024-02-14T01:31:01;5.50;99.90
4081;DHT22;2055;50.074;8.436;2024-02-14T01:33:27;5.40;99.90
4081;DHT22;2055;50.074;8.436;2024-02-14T01:35:53;5.40;99.90
4081;DHT22;2055;50.074;8.436;2024-02-14T01:38:19;5.40;99.90
4081;DHT22;2055;50.074;8.436;2024-02-14T01:40:45;5.40;99.90
4081;DHT22;2055;50.074;8.436;2024-02-14T01:43:11;5.40;99.90
4081;DHT22;2055;50.074;8.436;2024-02-14T01:45:37;5.40;99.90
4081;DHT22;2055;50.074;8.436;2024-02-14T01:48:04;5.50;99.90
4081;DHT22;2055;50.074;8.436;2024-02-14T01:50:31;5.50;99.90
4081;DHT22;2055;50.074;8.436;2024-02-14T01:52:58;5.50;99.90
4081;DHT22;2055;50.074;8.436;2024-02-14T01:55:26;5.50;99.90
4081;DHT22;2055;50.074;8.436;2024-02-14T01:57:54;5.40;99.90
4081;DHT22;2055;50.074;8.436;2024-02-14T02:00:19;5.50;99.90
4081;DHT22;2055;50.074;8.436;2024-02-14T02:02:45;5.40;99.90
4081;DHT22;2055;50.074;8.436;2024-02-14T02:05:12;5.40;99.90
4081;DHT22;2055;50.074;8.436;2024-02-14T02:07:39;6.20;99.90
4081;DHT22;2055;50.074;8.436;2024-02-14T02:10:09;5.40;99.90
4081;DHT22;2055;50.074;8.436;2024-02-14T02:12:35;5.40;99.90
4081;DHT22;2055;50.074;8.436;2024-02-14T02:15:05;5.30;99.90
4081;DHT22;2055;50.074;8.436;2024-02-14T02:17:31;5.30;99.90
4081;DHT22;2055;50.074;8.436;2024-02-14T02:20:00;5.30;99.90
4081;DHT22;2055;50.074;8.436;2024-02-14T02:22:25;5.40;99.90
4081;DHT22;2055;50.074;8.436;2024-02-14T02:24:51;5.40;99.90
4081;DHT22;2055;50.074;8.436;2024-02-14T02:27:16;5.40;99.90
4081;DHT22;2055;50.074;8.436;2024-02-14T02:29:42;5.50;99.90
4081;DHT22;2055;50.074;8.436;2024-02-14T02:32:08;5.50;99.90
4081;DHT22;2055;50.074;8.436;2024-02-14T02:34:35;5.50;99.90
4081;DHT22;2055;50.074;8.436;2024-02-14T02:37:04;5.50;99.90
4081;DHT22;2055;50.074;8.436;2024-02-14T02:39:33;5.50;99.90
4081;DHT22;2055;50.074;8.436;2024-02-14T02:41:59;5.60;99.90
4081;DHT22;2055;50.074;8.436;2024-02-14T02:44:25;5.60;99.90
4081;DHT22;2055;50.074;8.436;2024-02-14T02:46:50;5.60;99.90
4081;DHT22;2055;50.074;8.436;2024-02-14T02:49:16;5.60;99.90
4081;DHT22;2055;50.074;8.436;2024-02-14T02:51:41;5.60;99.90
4081;DHT22;2055;50.074;8.436;2024-02-14T02:54:07;5.60;99.90
4081;DHT22;2055;50.074;8.436;2024-02-14T02:56:33;6.80;99.90
4081;DHT22;2055;50.074;8.436;2024-02-14T02:58:59;5.60;99.90
4081;DHT22;2055;50.074;8.436;2024-02-14T03:01:24;5.60;99.90
4081;DHT22;2055;50.074;8.436;2024-02-14T03:03:56;5.60;99.90
4081;DHT22;2055;50.074;8.436;2024-02-14T03:06:24;5.60;99.90
4081;DHT22;2055;50.074;8.436;2024-02-14T03:08:52;5.70;99.90
4081;DHT22;2055;50.074;8.436;2024-02-14T03:11:19;5.70;99.90
4081;DHT22;2055;50.074;8.436;2024-02-14T03:13:45;5.70;99.90
4081;DHT22;2055;50.074;8.436;2024-02-14T03:16:10;5.70;99.90
4081;DHT22;2055;50.074;8.436;2024-02-14T03:18:36;5.70;99.90
4081;DHT22;2055;50.074;8.436;2024-02-14T03:21:04;5.80;99.90
4081;DHT22;2055;50.074;8.436;2024-02-14T03:23:31;5.70;99.90
4081;DHT22;2055;50.074;8.436;2024-02-14T03:25:57;5.80;99.90
4081;DHT22;2055;50.074;8.436;2024-02-14T03:28:22;5.80;99.90
4081;DHT22;2055;50.074;8.436;2024-02-14T03:30:48;5.80;99.90
4081;DHT22;2055;50.074;8.436;2024-02-14T03:33:14;5.80;99.90
4081;DHT22;2055;50.074;8.436;2024-02-14T03:35:40;5.80;99.90
4081;DHT22;2055;50.074;8.436;2024-02-14T03:38:06;5.80;99.90
4081;DHT22;2055;50.074;8.436;2024-02-14T03:40:34;5.80;99.90
4081;DHT22;2055;50.074;8.436;2024-02-14T03:43:01;5.90;99.90
4081;DHT22;2055;50.074;8.436;2024-02-14T03:45:27;6.10;99.90
4081;DHT22;2055;50.074;8.436;2024-02-14T03:47:55;5.90;99.90
4081;DHT22;2055;50.074;8.436;2024-02-14T03:50:22;8.90;99.90
4081;DHT22;2055;50.074;8.436;2024-02-14T03:52:47;6.00;99.90
4081;DHT22;2055;50.074;8.436;2024-02-14T03:55:14;5.90;99.90
4081;DHT22;2055;50.074;8.436;2024-02-14T03:57:42;5.90;99.90
4081;DHT22;2055;50.074;8.436;2024-02-14T04:00:11;5.90;99.90
4081;DHT22;2055;50.074;8.436;2024-02-14T04:02:37;6.00;99.90
4081;DHT22;2055;50.074;8.436;2024-02-14T04:05:03;6.00;99.90
4081;DHT22;2055;50.074;8.436;2024-02-14T04:07:29;6.00;99.90
4081;DHT22;2055;50.074;8.436;2024-02-14T04:09:57;6.10;99.90
4081;DHT22;2055;50.074;8.436;2024-02-14T04:12:23;6.00;99.90
4081;DHT22;2055;50.074;8.436;2024-02-14T04:14:48;6.00;99.90
4081;DHT22;2055;50.074;8.436;2024-02-14T04:17:14;6.00;99.90
4081;DHT22;2055;50.074;8.436;2024-02-14T04:19:39;6.00;99.90
4081;DHT22;2055;50.074;8.436;2024-02-14T04:22:05;6.10;99.90
4081;DHT22;2055;50.074;8.436;2024-02-14T04:24:33;6.00;99.90
4081;DHT22;2055;50.074;8.436;2024-02-14T04:26:59;6.00;99.90
4081;DHT22;2055;50.074;8.436;2024-02-14T04:29:28;6.00;99.90
4081;DHT22;2055;50.074;8.436;2024-02-14T04:31:55;6.10;99.90
4081;DHT22;2055;50.074;8.436;2024-02-14T04:34:21;6.10;99.90
4081;DHT22;2055;50.074;8.436;2024-02-14T04:36:47;6.00;99.90
4081;DHT22;2055;50.074;8.436;2024-02-14T04:39:12;6.10;99.90
4081;DHT22;2055;50.074;8.436;2024-02-14T04:41:38;6.10;99.90
4081;DHT22;2055;50.074;8.436;2024-02-14T04:44:06;6.00;99.90
4081;DHT22;2055;50.074;8.436;2024-02-14T04:46:33;6.10;99.90
4081;DHT22;2055;50.074;8.436;2024-02-14T04:49:00;6.00;99.90
4081;DHT22;2055;50.074;8.436;2024-02-14T04:51:31;5.90;99.90
4081;DHT22;2055;50.074;8.436;2024-02-14T04:53:57;5.90;99.90
4081;DHT22;2055;50.074;8.436;2024-02-14T04:56:26;6.10;99.90
4081;DHT22;2055;50.074;8.436;2024-02-14T04:58:55;5.90;99.90
4081;DHT22;2055;50.074;8.436;2024-02-14T05:01:20;5.80;99.90
4081;DHT22;2055;50.074;8.436;2024-02-14T05:03:46;5.90;99.90
4081;DHT22;2055;50.074;8.436;2024-02-14T05:06:12;5.90;99.90
4081;DHT22;2055;50.074;8.436;2024-02-14T05:08:37;5.90;99.90
4081;DHT22;2055;50.074;8.436;2024-02-14T05:11:03;5.80;99.90
4081;DHT22;2055;50.074;8.436;2024-02-14T05:13:30;5.90;99.90
4081;DHT22;2055;50.074;8.436;2024-02-14T05:15:55;5.80;99.90
4081;DHT22;2055;50.074;8.436;2024-02-14T05:18:21;5.80;99.90
4081;DHT22;2055;50.074;8.436;2024-02-14T05:20:47;5.80;99.90
4081;DHT22;2055;50.074;8.436;2024-02-14T05:23:12;5.60;99.90
4081;DHT22;2055;50.074;8.436;2024-02-14T05:25:38;6.90;99.90
4081;DHT22;2055;50.074;8.436;2024-02-14T05:28:05;5.70;99.90
4081;DHT22;2055;50.074;8.436;2024-02-14T05:30:30;5.70;99.90
4081;DHT22;2055;50.074;8.436;2024-02-14T05:32:57;5.80;99.90
4081;DHT22;2055;50.074;8.436;2024-02-14T05:35:22;5.70;99.90
4081;DHT22;2055;50.074;8.436;2024-02-14T05:37:49;5.80;99.90
4081;DHT22;2055;50.074;8.436;2024-02-14T05:40:16;6.00;99.90
4081;DHT22;2055;50.074;8.436;2024-02-14T05:42:41;5.90;99.90
4081;DHT22;2055;50.074;8.436;2024-02-14T05:45:09;5.80;99.90
4081;DHT22;2055;50.074;8.436;2024-02-14T05:47:35;5.90;99.90
4081;DHT22;2055;50.074;8.436;2024-02-14T05:50:01;5.90;99.90
4081;DHT22;2055;50.074;8.436;2024-02-14T05:52:26;5.90;99.90
4081;DHT22;2055;50.074;8.436;2024-02-14T05:54:52;8.40;99.90
4081;DHT22;2055;50.074;8.436;2024-02-14T05:57:17;6.00;99.90
4081;DHT22;2055;50.074;8.436;2024-02-14T05:59:43;6.00;99.90
4081;DHT22;2055;50.074;8.436;2024-02-14T06:02:08;6.10;99.90
4081;DHT22;2055;50.074;8.436;2024-02-14T06:04:35;6.10;99.90
4081;DHT22;2055;50.074;8.436;2024-02-14T06:07:01;6.00;99.90
4081;DHT22;2055;50.074;8.436;2024-02-14T06:09:28;6.30;99.90
4081;DHT22;2055;50.074;8.436;2024-02-14T06:11:53;6.20;99.90
4081;DHT22;2055;50.074;8.436;2024-02-14T06:14:19;6.10;99.90
4081;DHT22;2055;50.074;8.436;2024-02-14T06:16:44;6.10;99.90
4081;DHT22;2055;50.074;8.436;2024-02-14T06:19:10;6.20;99.90
4081;DHT22;2055;50.074;8.436;2024-02-14T06:21:36;6.20;99.90
4081;DHT22;2055;50.074;8.436;2024-02-14T06:24:02;6.30;99.90
4081;DHT22;2055;50.074;8.436;2024-02-14T06:26:31;6.30;99.90
4081;DHT22;2055;50.074;8.436;2024-02-14T06:28:58;6.30;99.90
4081;DHT22;2055;50.074;8.436;2024-02-14T06:31:25;6.20;99.90
4081;DHT22;2055;50.074;8.436;2024-02-14T06:33:50;6.30;99.90
4081;DHT22;2055;50.074;8.436;2024-02-14T06:36:16;6.30;99.90
4081;DHT22;2055;50.074;8.436;2024-02-14T06:38:41;6.30;99.90
4081;DHT22;2055;50.074;8.436;2024-02-14T06:41:07;6.40;99.90
4081;DHT22;2055;50.074;8.436;2024-02-14T06:43:33;6.30;99.90
4081;DHT22;2055;50.074;8.436;2024-02-14T06:45:58;6.40;99.90
4081;DHT22;2055;50.074;8.436;2024-02-14T06:48:26;6.40;99.90
4081;DHT22;2055;50.074;8.436;2024-02-14T06:50:52;6.30;99.90
4081;DHT22;2055;50.074;8.436;2024-02-14T06:53:18;6.40;99.90
4081;DHT22;2055;50.074;8.436;2024-02-14T06:55:43;6.40;99.90
4081;DHT22;2055;50.074;8.436;2024-02-14T06:58:09;6.40;99.90
4081;DHT22;2055;50.074;8.436;2024-02-14T07:00:34;6.40;99.90
4081;DHT22;2055;50.074;8.436;2024-02-14T07:03:00;6.50;99.90
4081;DHT22;2055;50.074;8.436;2024-02-14T07:05:27;6.40;99.90
4081;DHT22;2055;50.074;8.436;2024-02-14T07:07:55;6.40;99.90
4081;DHT22;2055;50.074;8.436;2024-02-14T07:10:21;6.50;99.90
4081;DHT22;2055;50.074;8.436;2024-02-14T07:12:47;6.50;99.90
4081;DHT22;2055;50.074;8.436;2024-02-14T07:15:12;6.50;99.90
4081;DHT22;2055;50.074;8.436;2024-02-14T07:17:38;6.60;99.90
4081;DHT22;2055;50.074;8.436;2024-02-14T07:20:04;4.00;99.90
4081;DHT22;2055;50.074;8.436;2024-02-14T07:22:30;6.70;99.90
4081;DHT22;2055;50.074;8.436;2024-02-14T07:24:56;6.60;99.90
4081;DHT22;2055;50.074;8.436;2024-02-14T07:27:21;10.40;99.90
4081;DHT22;2055;50.074;8.436;2024-02-14T07:29:49;6.70;99.90
4081;DHT22;2055;50.074;8.436;2024-02-14T07:32:14;6.70;99.90
4081;DHT22;2055;50.074;8.436;2024-02-14T07:34:40;8.90;99.90
4081;DHT22;2055;50.074;8.436;2024-02-14T07:37:06;6.70;99.90
4081;DHT22;2055;50.074;8.436;2024-02-14T07:39:31;6.70;99.90
4081;DHT22;2055;50.074;8.436;2024-02-14T07:41:57;6.80;99.90
4081;DHT22;2055;50.074;8.436;2024-02-14T07:44:22;8.30;99.90
4081;DHT22;2055;50.074;8.436;2024-02-14T07:46:49;6.90;99.90
4081;DHT22;2055;50.074;8.436;2024-02-14T07:49:14;6.90;99.90
4081;DHT22;2055;50.074;8.436;2024-02-14T07:51:40;7.00;99.90
4081;DHT22;2055;50.074;8.436;2024-02-14T07:54:06;7.00;99.90
4081;DHT22;2055;50.074;8.436;2024-02-14T07:56:32;6.90;99.90
4081;DHT22;2055;50.074;8.436;2024-02-14T07:58:58;7.00;99.90
4081;DHT22;2055;50.074;8.436;2024-02-14T08:01:23;6.90;99.90
4081;DHT22;2055;50.074;8.436;2024-02-14T08:03:49;7.10;99.90
4081;DHT22;2055;50.074;8.436;2024-02-14T08:06:14;7.10;99.90
4081;DHT22;2055;50.074;8.436;2024-02-14T08:08:40;7.10;99.90
4081;DHT22;2055;50.074;8.436;2024-02-14T08:11:06;7.20;99.90
4081;DHT22;2055;50.074;8.436;2024-02-14T08:13:32;7.20;99.90
4081;DHT22;2055;50.074;8.436;2024-02-14T08:15:57;7.10;99.90
4081;DHT22;2055;50.074;8.436;2024-02-14T08:18:24;7.20;99.90
4081;DHT22;2055;50.074;8.436;2024-02-14T08:20:49;7.30;99.90
4081;DHT22;2055;50.074;8.436;2024-02-14T08:23:15;9.40;99.90
4081;DHT22;2055;50.074;8.436;2024-02-14T08:25:40;7.30;99.90
4081;DHT22;2055;50.074;8.436;2024-02-14T08:28:09;7.40;74.50
4081;DHT22;2055;50.074;8.436;2024-02-14T08:30:35;7.60;94.30
4081;DHT22;2055;50.074;8.436;2024-02-14T08:33:01;7.70;1.00
4081;DHT22;2055;50.074;8.436;2024-02-14T08:35:26;7.70;74.80
4081;DHT22;2055;50.074;8.436;2024-02-14T08:37:52;7.80;1.00
4081;DHT22;2055;50.074;8.436;2024-02-14T08:40:17;7.70;1.00
4081;DHT22;2055;50.074;8.436;2024-02-14T08:42:43;7.70;1.00
4081;DHT22;2055;50.074;8.436;2024-02-14T08:45:09;7.70;99.90
4081;DHT22;2055;50.074;8.436;2024-02-14T08:47:35;7.70;99.90
4081;DHT22;2055;50.074;8.436;2024-02-14T08:50:03;7.80;94.10
4081;DHT22;2055;50.074;8.436;2024-02-14T08:52:29;6.90;1.00
4081;DHT22;2055;50.074;8.436;2024-02-14T08:54:54;7.80;1.00
4081;DHT22;2055;50.074;8.436;2024-02-14T08:57:20;7.80;1.00
4081;DHT22;2055;50.074;8.436;2024-02-14T08:59:46;7.80;1.00
4081;DHT22;2055;50.074;8.436;2024-02-14T09:02:13;8.10;99.90
4081;DHT22;2055;50.074;8.436;2024-02-14T09:04:40;8.20;99.90
4081;DHT22;2055;50.074;8.436;2024-02-14T09:07:10;8.30;99.90
4081;DHT22;2055;50.074;8.436;2024-02-14T09:09:35;8.30;99.90
4081;DHT22;2055;50.074;8.436;2024-02-14T09:12:03;8.40;99.90
4081;DHT22;2055;50.074;8.436;2024-02-14T09:14:29;8.50;99.90
4081;DHT22;2055;50.074;8.436;2024-02-14T09:16:56;8.60;99.90
4081;DHT22;2055;50.074;8.436;2024-02-14T09:19:21;8.60;99.90
4081;DHT22;2055;50.074;8.436;2024-02-14T09:21:47;8.70;99.90
4081;DHT22;2055;50.074;8.436;2024-02-14T09:24:13;8.80;99.90
4081;DHT22;2055;50.074;8.436;2024-02-14T09:26:38;8.80;99.90
4081;DHT22;2055;50.074;8.436;2024-02-14T09:29:04;8.90;99.90
4081;DHT22;2055;50.074;8.436;2024-02-14T09:31:30;9.00;99.90
4081;DHT22;2055;50.074;8.436;2024-02-14T09:33:56;9.00;99.90
4081;DHT22;2055;50.074;8.436;2024-02-14T09:36:23;9.00;99.90
4081;DHT22;2055;50.074;8.436;2024-02-14T09:38:50;9.20;99.90
4081;DHT22;2055;50.074;8.436;2024-02-14T09:43:52;9.20;99.90
4081;DHT22;2055;50.074;8.436;2024-02-14T09:46:17;9.20;99.90
4081;DHT22;2055;50.074;8.436;2024-02-14T09:48:44;9.10;99.90
4081;DHT22;2055;50.074;8.436;2024-02-14T09:51:11;9.10;99.90
4081;DHT22;2055;50.074;8.436;2024-02-14T09:53:38;9.10;99.90
4081;DHT22;2055;50.074;8.436;2024-02-14T09:56:05;11.10;99.90
4081;DHT22;2055;50.074;8.436;2024-02-14T09:58:34;9.10;99.90
4081;DHT22;2055;50.074;8.436;2024-02-14T10:01:00;9.10;99.90
4081;DHT22;2055;50.074;8.436;2024-02-14T10:10:10;9.40;99.90
4081;DHT22;2055;50.074;8.436;2024-02-14T10:12:36;9.40;99.90
4081;DHT22;2055;50.074;8.436;2024-02-14T10:15:02;9.40;99.90
4081;DHT22;2055;50.074;8.436;2024-02-14T10:17:28;9.50;99.90
4081;DHT22;2055;50.074;8.436;2024-02-14T10:20:00;9.40;99.90
4081;DHT22;2055;50.074;8.436;2024-02-14T10:22:33;9.50;99.90
4081;DHT22;2055;50.074;8.436;2024-02-14T10:24:59;10.20;99.90
4081;DHT22;2055;50.074;8.436;2024-02-14T10:27:25;9.60;99.90
4081;DHT22;2055;50.074;8.436;2024-02-14T10:29:51;9.70;99.90
4081;DHT22;2055;50.074;8.436;2024-02-14T10:32:16;9.50;99.90
4081;DHT22;2055;50.074;8.436;2024-02-14T10:34:43;9.60;99.90
4081;DHT22;2055;50.074;8.436;2024-02-14T10:37:14;11.40;99.90
4081;DHT22;2055;50.074;8.436;2024-02-14T10:39:41;11.30;99.90
4081;DHT22;2055;50.074;8.436;2024-02-14T10:42:08;11.40;99.90
4081;DHT22;2055;50.074;8.436;2024-02-14T10:44:35;9.90;99.90
4081;DHT22;2055;50.074;8.436;2024-02-14T10:47:02;10.10;99.90
4081;DHT22;2055;50.074;8.436;2024-02-14T10:49:30;10.20;99.90
4081;DHT22;2055;50.074;8.436;2024-02-14T10:51:58;10.40;99.90
4081;DHT22;2055;50.074;8.436;2024-02-14T10:54:28;10.40;99.90
4081;DHT22;2055;50.074;8.436;2024-02-14T10:56:54;10.30;99.90
4081;DHT22;2055;50.074;8.436;2024-02-14T10:59:24;10.40;99.90
4081;DHT22;2055;50.074;8.436;2024-02-14T11:01:50;10.60;99.90
4081;DHT22;2055;50.074;8.436;2024-02-14T11:04:17;10.50;99.90
4081;DHT22;2055;50.074;8.436;2024-02-14T11:06:47;10.50;99.90
4081;DHT22;2055;50.074;8.436;2024-02-14T11:09:14;10.50;99.90
4081;DHT22;2055;50.074;8.436;2024-02-14T11:11:42;10.50;99.90
4081;DHT22;2055;50.074;8.436;2024-02-14T11:14:09;10.70;99.90
4081;DHT22;2055;50.074;8.436;2024-02-14T11:16:37;11.90;99.90
4081;DHT22;2055;50.074;8.436;2024-02-14T11:19:10;11.00;99.90
4081;DHT22;2055;50.074;8.436;2024-02-14T11:21:43;11.00;99.90
4081;DHT22;2055;50.074;8.436;2024-02-14T11:24:14;11.00;99.90
4081;DHT22;2055;50.074;8.436;2024-02-14T11:26:46;13.10;99.90
4081;DHT22;2055;50.074;8.436;2024-02-14T11:29:15;11.10;99.90
4081;DHT22;2055;50.074;8.436;2024-02-14T11:31:45;12.00;99.90
4081;DHT22;2055;50.074;8.436;2024-02-14T11:34:17;11.00;99.90
4081;DHT22;2055;50.074;8.436;2024-02-14T11:36:44;11.60;99.90
4081;DHT22;2055;50.074;8.436;2024-02-14T11:39:13;11.10;99.90
4081;DHT22;2055;50.074;8.436;2024-02-14T11:41:39;11.20;99.90
4081;DHT22;2055;50.074;8.436;2024-02-14T11:44:05;11.40;99.90
4081;DHT22;2055;50.074;8.436;2024-02-14T11:46:32;11.30;99.90
4081;DHT22;2055;50.074;8.436;2024-02-14T11:49:02;11.10;99.90
4081;DHT22;2055;50.074;8.436;2024-02-14T11:51:28;11.10;99.90
4081;DHT22;2055;50.074;8.436;2024-02-14T11:53:59;10.90;99.90
4081;DHT22;2055;50.074;8.436;2024-02-14T11:56:32;10.90;99.90
4081;DHT22;2055;50.074;8.436;2024-02-14T11:59:02;10.80;99.90
4081;DHT22;2055;50.074;8.436;2024-02-14T12:01:30;14.00;99.90
4081;DHT22;2055;50.074;8.436;2024-02-14T12:03:59;10.90;99.90
4081;DHT22;2055;50.074;8.436;2024-02-14T12:06:27;10.70;99.90
4081;DHT22;2055;50.074;8.436;2024-02-14T12:08:53;12.60;99.90
4081;DHT22;2055;50.074;8.436;2024-02-14T12:11:19;10.60;99.90
4081;DHT22;2055;50.074;8.436;2024-02-14T12:13:49;11.60;99.90
4081;DHT22;2055;50.074;8.436;2024-02-14T12:16:15;10.50;99.90
4081;DHT22;2055;50.074;8.436;2024-02-14T12:18:41;10.60;99.90
4081;DHT22;2055;50.074;8.436;2024-02-14T12:21:07;10.60;99.90
4081;DHT22;2055;50.074;8.436;2024-02-14T12:23:35;10.60;99.90
4081;DHT22;2055;50.074;8.436;2024-02-14T12:26:02;11.30;99.90
4081;DHT22;2055;50.074;8.436;2024-02-14T12:28:29;10.80;99.90
4081;DHT22;2055;50.074;8.436;2024-02-14T12:30:57;11.10;99.90
4081;DHT22;2055;50.074;8.436;2024-02-14T12:33:26;11.20;99.90
4081;DHT22;2055;50.074;8.436;2024-02-14T12:35:55;13.50;99.90
4081;DHT22;2055;50.074;8.436;2024-02-14T12:38:22;11.80;99.90
4081;DHT22;2055;50.074;8.436;2024-02-14T12:40:49;11.20;99.90
4081;DHT22;2055;50.074;8.436;2024-02-14T12:43:15;11.40;99.90
4081;DHT22;2055;50.074;8.436;2024-02-14T12:45:43;13.60;99.90
4081;DHT22;2055;50.074;8.436;2024-02-14T12:48:10;11.40;99.90
4081;DHT22;2055;50.074;8.436;2024-02-14T12:50:36;11.30;99.90
4081;DHT22;2055;50.074;8.436;2024-02-14T12:53:06;11.20;99.90
4081;DHT22;2055;50.074;8.436;2024-02-14T12:55:32;11.40;99.90
4081;DHT22;2055;50.074;8.436;2024-02-14T12:57:58;13.30;99.90
4081;DHT22;2055;50.074;8.436;2024-02-14T13:00:27;14.40;99.90
4081;DHT22;2055;50.074;8.436;2024-02-14T13:02:52;11.40;99.90
4081;DHT22;2055;50.074;8.436;2024-02-14T13:05:19;11.20;99.90
4081;DHT22;2055;50.074;8.436;2024-02-14T13:07:45;11.30;99.90
4081;DHT22;2055;50.074;8.436;2024-02-14T13:10:12;13.70;99.90
4081;DHT22;2055;50.074;8.436;2024-02-14T13:12:37;11.30;99.90
4081;DHT22;2055;50.074;8.436;2024-02-14T13:15:04;11.20;99.90
4081;DHT22;2055;50.074;8.436;2024-02-14T13:17:30;11.20;99.90
4081;DHT22;2055;50.074;8.436;2024-02-14T13:19:56;11.10;99.90
4081;DHT22;2055;50.074;8.436;2024-02-14T13:22:22;10.90;99.90
4081;DHT22;2055;50.074;8.436;2024-02-14T13:24:48;11.00;99.90
4081;DHT22;2055;50.074;8.436;2024-02-14T13:27:14;10.30;99.90
4081;DHT22;2055;50.074;8.436;2024-02-14T13:29:40;9.90;99.90
4081;DHT22;2055;50.074;8.436;2024-02-14T13:32:06;9.70;1.00
4081;DHT22;2055;50.074;8.436;2024-02-14T13:34:33;9.70;99.90
4081;DHT22;2055;50.074;8.436;2024-02-14T13:36:59;9.60;1.00
4081;DHT22;2055;50.074;8.436;2024-02-14T13:39:24;9.80;99.90
4081;DHT22;2055;50.074;8.436;2024-02-14T13:41:50;9.80;99.90
4081;DHT22;2055;50.074;8.436;2024-02-14T13:44:17;9.80;99.90
4081;DHT22;2055;50.074;8.436;2024-02-14T13:46:44;9.90;1.00
4081;DHT22;2055;50.074;8.436;2024-02-14T13:49:11;9.70;1.00
4081;DHT22;2055;50.074;8.436;2024-02-14T13:51:37;13.70;4.80
4081;DHT22;2055;50.074;8.436;2024-02-14T13:54:03;9.70;99.90
4081;DHT22;2055;50.074;8.436;2024-02-14T13:56:29;9.70;99.90
4081;DHT22;2055;50.074;8.436;2024-02-14T13:58:55;9.60;99.90
4081;DHT22;2055;50.074;8.436;2024-02-14T14:01:21;9.60;99.90
4081;DHT22;2055;50.074;8.436;2024-02-14T14:03:47;9.70;99.90
4081;DHT22;2055;50.074;8.436;2024-02-14T14:06:15;9.60;99.90
4081;DHT22;2055;50.074;8.436;2024-02-14T14:08:41;9.60;99.90
4081;DHT22;2055;50.074;8.436;2024-02-14T14:11:07;9.70;99.90
4081;DHT22;2055;50.074;8.436;2024-02-14T14:13:34;9.70;99.90
4081;DHT22;2055;50.074;8.436;2024-02-14T14:16:00;9.80;99.90
4081;DHT22;2055;50.074;8.436;2024-02-14T14:18:26;9.80;99.90
4081;DHT22;2055;50.074;8.436;2024-02-14T14:20:51;9.70;99.90
4081;DHT22;2055;50.074;8.436;2024-02-14T14:23:18;9.70;1.00
4081;DHT22;2055;50.074;8.436;2024-02-14T14:25:43;9.70;1.00
4081;DHT22;2055;50.074;8.436;2024-02-14T14:28:09;10.90;1.00
4081;DHT22;2055;50.074;8.436;2024-02-14T14:30:38;9.70;1.00
4081;DHT22;2055;50.074;8.436;2024-02-14T14:33:04;9.60;1.00
4081;DHT22;2055;50.074;8.436;2024-02-14T14:35:30;8.60;1.00
4081;DHT22;2055;50.074;8.436;2024-02-14T14:38:02;9.60;1.00
4081;DHT22;2055;50.074;8.436;2024-02-14T14:40:32;9.60;1.00
4081;DHT22;2055;50.074;8.436;2024-02-14T14:42:57;9.60;1.00
4081;DHT22;2055;50.074;8.436;2024-02-14T14:45:23;9.70;1.00
4081;DHT22;2055;50.074;8.436;2024-02-14T14:47:49;9.70;1.00
4081;DHT22;2055;50.074;8.436;2024-02-14T14:50:17;11.10;1.00
4081;DHT22;2055;50.074;8.436;2024-02-14T14:52:44;9.60;1.00
4081;DHT22;2055;50.074;8.436;2024-02-14T14:55:11;9.60;1.00
4081;DHT22;2055;50.074;8.436;2024-02-14T14:57:36;9.70;1.00
4081;DHT22;2055;50.074;8.436;2024-02-14T15:00:09;9.70;99.90
4081;DHT22;2055;50.074;8.436;2024-02-14T15:02:37;9.70;99.90
4081;DHT22;2055;50.074;8.436;2024-02-14T15:05:04;9.80;99.90
4081;DHT22;2055;50.074;8.436;2024-02-14T15:07:30;9.70;99.90
4081;DHT22;2055;50.074;8.436;2024-02-14T15:09:55;9.60;99.90
4081;DHT22;2055;50.074;8.436;2024-02-14T15:12:21;9.70;99.90
4081;DHT22;2055;50.074;8.436;2024-02-14T15:14:51;9.60;99.90
4081;DHT22;2055;50.074;8.436;2024-02-14T15:17:16;9.60;99.90
4081;DHT22;2055;50.074;8.436;2024-02-14T15:19:42;9.60;99.90
4081;DHT22;2055;50.074;8.436;2024-02-14T15:22:07;9.70;99.90
4081;DHT22;2055;50.074;8.436;2024-02-14T15:24:33;9.60;99.90
4081;DHT22;2055;50.074;8.436;2024-02-14T15:27:01;9.60;99.90
4081;DHT22;2055;50.074;8.436;2024-02-14T15:29:28;9.70;99.90
4081;DHT22;2055;50.074;8.436;2024-02-14T15:32:32;9.70;99.90
4081;DHT22;2055;50.074;8.436;2024-02-14T15:35:24;9.70;99.90
4081;DHT22;2055;50.074;8.436;2024-02-14T15:37:50;9.70;99.90
4081;DHT22;2055;50.074;8.436;2024-02-14T15:40:18;9.70;99.90
4081;DHT22;2055;50.074;8.436;2024-02-14T15:42:44;9.60;99.90
4081;DHT22;2055;50.074;8.436;2024-02-14T15:45:10;9.60;99.90
4081;DHT22;2055;50.074;8.436;2024-02-14T15:47:46;9.70;99.90
4081;DHT22;2055;50.074;8.436;2024-02-14T15:50:12;9.60;99.90
4081;DHT22;2055;50.074;8.436;2024-02-14T15:52:38;9.70;99.90
4081;DHT22;2055;50.074;8.436;2024-02-14T15:55:05;9.60;99.90
4081;DHT22;2055;50.074;8.436;2024-02-14T15:57:33;9.70;99.90
4081;DHT22;2055;50.074;8.436;2024-02-14T15:59:59;9.70;99.90
4081;DHT22;2055;50.074;8.436;2024-02-14T16:02:24;9.70;99.90
4081;DHT22;2055;50.074;8.436;2024-02-14T16:04:50;9.70;99.90
4081;DHT22;2055;50.074;8.436;2024-02-14T16:07:15;9.70;99.90
4081;DHT22;2055;50.074;8.436;2024-02-14T16:09:41;10.40;99.90
4081;DHT22;2055;50.074;8.436;2024-02-14T16:12:06;9.70;99.90
4081;DHT22;2055;50.074;8.436;2024-02-14T16:14:32;9.70;99.90
4081;DHT22;2055;50.074;8.436;2024-02-14T16:16:58;9.70;99.90
4081;DHT22;2055;50.074;8.436;2024-02-14T16:19:23;9.70;99.90
4081;DHT22;2055;50.074;8.436;2024-02-14T16:21:49;9.70;99.90